Time;durP1;ratioP1;P1;durP2;ratioP2;P2;SDS_P1;SDS_P2;PMS_P1;PMS_P2;Temp;Humidity;BMP_temperature;BMP_pressure;BME280_temperature;BME280_humidity;BME280_pressure;Samples;Min_cycle;Max_cycle;Signal;HPM_P1;HPM_P2
2022/10/27 00:00:42;;;;;;;18.50;4.68;;;23.00;93.20;;;;;;5031666;28;20122;-72
2022/10/27 00:03:12;;;;;;;18.15;4.13;;;23.10;93.20;;;;;;5030597;28;20036;-70
2022/10/27 00:05:41;;;;;;;17.88;4.35;;;23.10;92.90;;;;;;5030491;28;20022;-70
2022/10/27 00:08:16;;;;;;;23.67;4.30;;;23.10;93.10;;;;;;5030472;28;20045;-73
2022/10/27 00:10:45;;;;;;;19.67;4.00;;;23.10;92.90;;;;;;5031081;28;20017;-72
2022/10/27 00:13:12;;;;;;;16.48;3.97;;;23.10;92.60;;;;;;5030419;28;20045;-72
2022/10/27 00:15:38;;;;;;;29.02;4.78;;;23.20;92.20;;;;;;5029306;28;20172;-73
2022/10/27 00:18:10;;;;;;;16.52;3.97;;;23.30;92.60;;;;;;5030744;28;20037;-73
2022/10/27 00:20:36;;;;;;;14.75;3.92;;;23.20;92.70;;;;;;5030683;28;20018;-74
2022/10/27 00:23:02;;;;;;;21.63;4.07;;;23.20;92.60;;;;;;5012659;28;20044;-72
2022/10/27 00:25:28;;;;;;;19.23;4.18;;;23.10;92.60;;;;;;5030369;28;20045;-72
2022/10/27 00:27:54;;;;;;;15.13;4.15;;;23.00;92.80;;;;;;5030293;28;20072;-72
2022/10/27 00:30:20;;;;;;;27.17;4.63;;;23.00;92.60;;;;;;5030445;28;20053;-72
2022/10/27 00:32:46;;;;;;;20.80;4.38;;;23.10;92.40;;;;;;5030121;28;20068;-73
2022/10/27 00:35:12;;;;;;;15.18;3.35;;;23.00;92.60;;;;;;5030411;28;20048;-73
2022/10/27 00:37:38;;;;;;;20.17;4.50;;;23.00;92.90;;;;;;5030156;28;20030;-73
2022/10/27 00:40:05;;;;;;;28.45;4.45;;;23.00;92.10;;;;;;5030779;28;20021;-73
2022/10/27 00:42:32;;;;;;;19.08;3.90;;;23.00;91.90;;;;;;5030561;28;20029;-71
2022/10/27 00:44:58;;;;;;;16.23;4.07;;;23.00;91.90;;;;;;5030466;28;20148;-73
2022/10/27 00:47:31;;;;;;;18.95;3.85;;;23.10;91.60;;;;;;5027703;28;20049;-73
2022/10/27 00:50:02;;;;;;;17.45;3.58;;;23.20;91.50;;;;;;5019418;28;20196;-73
2022/10/27 00:52:37;;;;;;;21.42;3.67;;;23.20;91.50;;;;;;5024815;28;20053;-73
2022/10/27 00:55:21;;;;;;;20.60;3.88;;;23.20;91.20;;;;;;5029697;28;20025;-72
2022/10/27 00:57:51;;;;;;;16.95;3.50;;;23.30;90.60;;;;;;5010626;28;20028;-72
2022/10/27 01:00:18;;;;;;;21.83;3.10;;;23.40;90.30;;;;;;5029927;28;20100;-73
2022/10/27 01:02:46;;;;;;;15.13;4.03;;;23.60;90.00;;;;;;4993048;28;20409;-73
2022/10/27 01:05:24;;;;;;;15.95;3.65;;;23.70;90.10;;;;;;4988989;28;20085;-74
2022/10/27 01:07:57;;;;;;;17.42;3.47;;;23.80;90.40;;;;;;4993045;28;20030;-71
2022/10/27 01:10:24;;;;;;;21.17;3.45;;;23.70;90.70;;;;;;5016308;28;20438;-73
2022/10/27 01:12:50;;;;;;;15.65;3.83;;;23.60;90.80;;;;;;5013624;28;20110;-73
2022/10/27 01:15:16;;;;;;;21.75;3.47;;;23.50;90.90;;;;;;5013730;28;20113;-72
2022/10/27 01:18:07;;;;;;;18.52;4.32;;;23.50;90.90;;;;;;5008975;28;20030;-72
2022/10/27 01:21:02;;;;;;;19.25;3.80;;;23.50;90.80;;;;;;5011233;28;20040;-74
2022/10/27 01:23:54;;;;;;;19.45;3.35;;;23.40;90.70;;;;;;5023684;28;20093;-73
2022/10/27 01:26:32;;;;;;;24.02;4.20;;;23.40;90.60;;;;;;5032355;28;20099;-73
2022/10/27 01:29:18;;;;;;;19.25;3.63;;;23.40;90.80;;;;;;5032835;28;20441;-73
2022/10/27 01:31:53;;;;;;;;;;;23.30;90.90;;;;;;5030374;28;20052;-76
2022/10/27 01:34:44;;;;;;;20.35;3.60;;;23.30;91.00;;;;;;5015863;28;19916;-73
2022/10/27 01:37:11;;;;;;;18.85;3.42;;;23.30;90.90;;;;;;5019259;28;20390;-74
2022/10/27 01:39:50;;;;;;;21.23;4.00;;;23.30;90.80;;;;;;5033992;28;20053;-74
2022/10/27 01:42:24;;;;;;;22.65;3.78;;;23.30;90.90;;;;;;5033354;28;20099;-73
2022/10/27 01:44:54;;;;;;;17.10;3.65;;;23.20;91.10;;;;;;5033345;28;20037;-74
2022/10/27 01:47:23;;;;;;;14.82;3.67;;;23.20;91.10;;;;;;5019144;28;20036;-74
2022/10/27 01:49:53;;;;;;;16.25;3.75;;;23.10;90.70;;;;;;5013839;28;20049;-74
2022/10/27 01:52:48;;;;;;;19.73;3.78;;;23.10;91.10;;;;;;4996224;28;20482;-74
2022/10/27 01:55:30;;;;;;;20.83;3.58;;;23.00;91.20;;;;;;5013565;28;20098;-73
2022/10/27 01:58:28;;;;;;;22.70;3.72;;;23.10;90.50;;;;;;5013380;28;20037;-73
2022/10/27 02:01:18;;;;;;;13.02;3.30;;;23.30;90.70;;;;;;5012948;28;20022;-73
2022/10/27 02:03:50;;;;;;;17.27;3.28;;;23.30;90.40;;;;;;5013228;28;20045;-73
2022/10/27 02:06:35;;;;;;;16.27;3.35;;;23.20;90.60;;;;;;5013449;28;20026;-72
2022/10/27 02:09:20;;;;;;;18.60;3.80;;;23.20;90.60;;;;;;5012838;28;20195;-73
2022/10/27 02:11:51;;;;;;;18.42;3.88;;;23.20;90.80;;;;;;5013216;28;20129;-73
2022/10/27 02:14:19;;;;;;;18.33;3.22;;;23.10;90.80;;;;;;4995072;28;20523;-73
2022/10/27 02:16:51;;;;;;;18.98;3.30;;;23.00;90.90;;;;;;5013094;28;20057;-73
2022/10/27 02:19:22;;;;;;;22.40;4.22;;;23.00;90.80;;;;;;5011927;28;20022;-72
2022/10/27 02:21:52;;;;;;;20.40;4.13;;;23.00;90.90;;;;;;5012843;28;20029;-73
2022/10/27 02:24:18;;;;;;;19.25;3.72;;;23.00;91.10;;;;;;5012515;28;20109;-72
2022/10/27 02:26:48;;;;;;;;;;;22.90;91.10;;;;;;4994861;28;20466;-75
2022/10/27 02:29:24;;;;;;;13.45;3.33;;;22.90;91.00;;;;;;5012499;28;20381;-74
2022/10/27 02:32:00;;;;;;;23.98;4.10;;;22.90;91.00;;;;;;5012568;28;20022;-72
2022/10/27 02:34:27;;;;;;;17.48;4.28;;;23.00;90.90;;;;;;5029946;28;20014;-73
2022/10/27 02:36:53;;;;;;;15.27;3.20;;;23.00;90.90;;;;;;5014109;28;20101;-72
2022/10/27 02:39:20;;;;;;;16.52;3.30;;;23.00;90.70;;;;;;5031743;28;20026;-72
2022/10/27 02:41:46;;;;;;;23.42;3.70;;;22.90;90.90;;;;;;5032425;28;20135;-74
2022/10/27 02:44:13;;;;;;;16.92;3.72;;;22.90;91.00;;;;;;5031992;28;20026;-72
2022/10/27 02:46:39;;;;;;;12.32;3.05;;;22.80;91.00;;;;;;5031919;28;20433;-72
2022/10/27 02:49:07;;;;;;;14.48;3.03;;;22.80;90.80;;;;;;5031997;28;20124;-72
2022/10/27 02:51:33;;;;;;;17.70;3.50;;;22.80;90.90;;;;;;4996935;28;20129;-72
2022/10/27 02:53:59;;;;;;;14.43;2.60;;;22.80;90.90;;;;;;5013402;28;20191;-73
2022/10/27 02:56:25;;;;;;;22.20;3.50;;;22.70;91.10;;;;;;5013192;28;20123;-74
2022/10/27 02:58:51;;;;;;;11.82;3.33;;;22.70;91.20;;;;;;5012036;28;20073;-73
2022/10/27 03:01:18;;;;;;;14.45;3.20;;;22.70;90.80;;;;;;5012131;28;20022;-73
2022/10/27 03:03:44;;;;;;;16.88;3.08;;;22.70;91.10;;;;;;5011925;28;20030;-74
2022/10/27 03:06:10;;;;;;;17.77;3.20;;;22.70;91.10;;;;;;5012218;28;20084;-73
2022/10/27 03:08:36;;;;;;;18.95;3.33;;;22.70;90.70;;;;;;5012105;28;20124;-73
2022/10/27 03:11:02;;;;;;;19.88;3.95;;;22.80;90.70;;;;;;5012118;28;20068;-72
2022/10/27 03:13:28;;;;;;;13.93;2.90;;;22.90;90.80;;;;;;5012391;28;20029;-74
2022/10/27 03:15:54;;;;;;;15.85;3.50;;;22.90;90.70;;;;;;5012153;28;20025;-74
2022/10/27 03:18:22;;;;;;;15.77;2.92;;;23.00;90.60;;;;;;5012125;28;20029;-74
2022/10/27 03:20:48;;;;;;;15.80;3.30;;;23.10;90.20;;;;;;4994136;28;20022;-72
2022/10/27 03:23:14;;;;;;;20.98;3.85;;;23.20;90.10;;;;;;5022842;28;20101;-74
2022/10/27 03:25:43;;;;;;;15.50;3.30;;;23.30;90.00;;;;;;5032115;28;20033;-73
2022/10/27 03:28:10;;;;;;;18.55;3.63;;;23.40;90.00;;;;;;5032312;28;20025;-73
2022/10/27 03:30:38;;;;;;;20.90;3.45;;;23.50;90.00;;;;;;5031813;28;20470;-74
2022/10/27 03:33:05;;;;;;;20.40;3.35;;;23.40;90.40;;;;;;5032209;28;20037;-72
2022/10/27 03:35:32;;;;;;;16.95;3.90;;;23.20;90.60;;;;;;5031985;28;20078;-72
2022/10/27 03:37:59;;;;;;;12.13;3.20;;;23.10;90.80;;;;;;5031619;28;20073;-72
2022/10/27 03:40:27;;;;;;;17.75;3.13;;;23.00;90.90;;;;;;5032201;28;20060;-74
2022/10/27 03:42:57;;;;;;;20.45;4.10;;;22.90;91.30;;;;;;5032063;28;20025;-73
2022/10/27 03:45:25;;;;;;;16.45;2.97;;;22.90;91.00;;;;;;5031957;28;20035;-72
2022/10/27 03:48:01;;;;;;;16.95;3.50;;;22.90;90.60;;;;;;5031645;28;20045;-72
2022/10/27 03:50:27;;;;;;;18.35;3.33;;;23.00;90.60;;;;;;5013380;28;20111;-72
2022/10/27 03:52:53;;;;;;;21.48;3.13;;;22.90;90.70;;;;;;5031475;28;20029;-72
2022/10/27 03:55:23;;;;;;;17.08;3.03;;;22.90;90.80;;;;;;5031673;28;20381;-74
2022/10/27 03:57:49;;;;;;;23.65;4.20;;;22.80;90.90;;;;;;5031515;28;20033;-74
2022/10/27 04:00:17;;;;;;;22.90;3.63;;;22.80;91.00;;;;;;5031447;28;20431;-74
2022/10/27 04:02:43;;;;;;;22.23;3.85;;;22.70;91.10;;;;;;5013741;28;20036;-72
2022/10/27 04:05:09;;;;;;;18.23;3.00;;;22.70;90.90;;;;;;5031982;28;20021;-74
2022/10/27 04:07:36;;;;;;;22.58;3.75;;;22.80;90.70;;;;;;5031245;28;20100;-73
2022/10/27 04:10:02;;;;;;;14.23;3.05;;;22.80;90.60;;;;;;5031857;28;20112;-74
2022/10/27 04:12:29;;;;;;;20.08;3.47;;;22.80;90.40;;;;;;5031502;28;20078;-74
2022/10/27 04:14:56;;;;;;;16.90;3.65;;;22.90;90.50;;;;;;5013827;28;20115;-73
2022/10/27 04:17:22;;;;;;;22.15;3.10;;;22.90;90.50;;;;;;5012149;28;20018;-74
2022/10/27 04:19:48;;;;;;;13.73;3.10;;;22.80;90.50;;;;;;5012809;28;20084;-73
2022/10/27 04:22:15;;;;;;;15.73;3.65;;;22.90;90.40;;;;;;5012549;28;20014;-73
2022/10/27 04:24:42;;;;;;;22.70;3.28;;;22.90;90.30;;;;;;5013067;28;20034;-73
2022/10/27 04:27:09;;;;;;;20.90;2.95;;;23.00;90.00;;;;;;5012326;28;20022;-73
2022/10/27 04:29:36;;;;;;;15.90;3.30;;;23.20;89.40;;;;;;5012761;28;20175;-73
2022/10/27 04:32:03;;;;;;;16.40;2.80;;;23.20;88.90;;;;;;5012868;28;20065;-73
2022/10/27 04:34:29;;;;;;;23.40;2.97;;;23.20;88.40;;;;;;5012878;28;20042;-74
2022/10/27 04:36:56;;;;;;;15.95;2.92;;;23.30;88.40;;;;;;5012411;28;20022;-73
2022/10/27 04:39:22;;;;;;;;;;;23.30;88.00;;;;;;5012865;28;20115;-73
2022/10/27 04:41:49;;;;;;;13.43;2.50;;;23.40;87.90;;;;;;5011991;28;20341;-74
2022/10/27 04:44:16;;;;;;;19.75;2.88;;;23.50;87.50;;;;;;5012315;28;20021;-74
2022/10/27 04:46:43;;;;;;;15.93;2.60;;;23.50;87.20;;;;;;5012120;28;20081;-73
2022/10/27 04:49:10;;;;;;;22.63;3.83;;;23.60;87.20;;;;;;5012595;28;20462;-72
2022/10/27 04:51:36;;;;;;;21.35;2.90;;;23.60;86.80;;;;;;5012115;28;20069;-73
2022/10/27 04:54:03;;;;;;;16.17;2.88;;;23.70;86.30;;;;;;5012224;28;20030;-73
2022/10/27 04:56:29;;;;;;;19.95;3.40;;;23.80;86.10;;;;;;5010818;28;20100;-73
2022/10/27 04:58:56;;;;;;;16.70;3.08;;;23.90;85.90;;;;;;5011726;28;20324;-74
2022/10/27 05:01:23;;;;;;;23.15;3.10;;;24.00;85.80;;;;;;5011569;28;20040;-74
2022/10/27 05:03:50;;;;;;;15.38;2.42;;;24.00;85.80;;;;;;5012230;28;20054;-74
2022/10/27 05:06:18;;;;;;;19.05;2.90;;;23.90;85.90;;;;;;4993947;28;20049;-74
2022/10/27 05:08:44;;;;;;;19.52;3.45;;;23.80;86.50;;;;;;5011874;28;20092;-71
2022/10/27 05:11:12;;;;;;;14.40;2.78;;;23.70;86.80;;;;;;5011583;28;20113;-70
2022/10/27 05:13:38;;;;;;;20.05;3.72;;;23.60;87.20;;;;;;5011722;28;20026;-73
2022/10/27 05:16:05;;;;;;;21.00;3.25;;;23.60;87.50;;;;;;5012023;28;20029;-74
2022/10/27 05:18:31;;;;;;;14.95;2.90;;;23.50;87.80;;;;;;4990740;28;20092;-70
2022/10/27 05:20:58;;;;;;;28.88;3.63;;;23.50;88.20;;;;;;5008511;28;20025;-71
2022/10/27 05:23:24;;;;;;;18.85;3.45;;;23.30;88.40;;;;;;5010640;28;20389;-73
2022/10/27 05:25:56;;;;;;;19.60;3.05;;;23.20;88.90;;;;;;5016434;28;20021;-74
2022/10/27 05:28:22;;;;;;;17.85;3.17;;;23.20;89.10;;;;;;5011534;28;20065;-73
2022/10/27 05:30:49;;;;;;;17.40;2.97;;;23.10;88.70;;;;;;4998739;28;20033;-71
2022/10/27 05:33:15;;;;;;;17.80;3.45;;;23.20;89.00;;;;;;5011206;28;20028;-72
2022/10/27 05:35:44;;;;;;;19.23;2.80;;;23.20;89.00;;;;;;5011525;28;20454;-71
2022/10/27 05:38:10;;;;;;;20.75;3.03;;;23.20;88.70;;;;;;5011492;28;20025;-70
2022/10/27 05:40:36;;;;;;;;;;;23.20;88.70;;;;;;5004510;28;20029;-71
2022/10/27 05:43:03;;;;;;;18.65;2.90;;;23.20;88.40;;;;;;5031147;28;19909;-72
2022/10/27 05:45:29;;;;;;;18.02;3.35;;;23.30;88.20;;;;;;5030683;28;20104;-72
2022/10/27 05:47:58;;;;;;;16.15;3.50;;;23.40;88.00;;;;;;5030464;28;20076;-72
2022/10/27 05:50:25;;;;;;;19.60;2.92;;;23.50;87.80;;;;;;5029990;28;20123;-73
2022/10/27 05:52:51;;;;;;;15.45;2.90;;;23.60;87.30;;;;;;5030430;28;20033;-73
2022/10/27 05:55:17;;;;;;;19.88;3.72;;;23.70;86.80;;;;;;5015449;28;20390;-72
2022/10/27 05:57:52;;;;;;;13.23;2.65;;;24.00;86.00;;;;;;5015808;28;20025;-72
2022/10/27 06:00:19;;;;;;;16.65;3.15;;;24.30;85.40;;;;;;5033581;28;20488;-70
2022/10/27 06:02:46;;;;;;;16.10;3.00;;;24.60;84.90;;;;;;5033330;28;20363;-71
2022/10/27 06:05:12;;;;;;;18.48;2.92;;;24.90;84.10;;;;;;5015835;28;20030;-71
2022/10/27 06:07:39;;;;;;;18.65;2.67;;;25.10;83.60;;;;;;5021783;28;20034;-71
2022/10/27 06:10:05;;;;;;;15.38;3.50;;;25.30;83.80;;;;;;5014041;28;20026;-73
2022/10/27 06:12:32;;;;;;;21.45;3.28;;;25.50;83.20;;;;;;4996200;28;20044;-73
2022/10/27 06:14:58;;;;;;;22.13;3.30;;;25.80;82.30;;;;;;5014219;28;20420;-71
2022/10/27 06:17:25;;;;;;;18.63;3.08;;;26.00;82.00;;;;;;5014391;28;20137;-73
2022/10/27 06:19:51;;;;;;;20.20;3.30;;;26.30;81.70;;;;;;5014525;28;20041;-71
2022/10/27 06:22:17;;;;;;;25.70;3.80;;;26.60;81.70;;;;;;5014568;28;20474;-72
2022/10/27 06:24:43;;;;;;;15.50;2.65;;;27.00;81.20;;;;;;5014934;28;20540;-72
2022/10/27 06:27:09;;;;;;;17.73;3.20;;;27.30;80.80;;;;;;4997662;28;20065;-72
2022/10/27 06:29:35;;;;;;;24.58;3.10;;;27.40;80.50;;;;;;5014417;28;20465;-72
2022/10/27 06:32:01;;;;;;;12.88;2.80;;;27.70;80.80;;;;;;5014283;28;20125;-76
2022/10/27 06:34:27;;;;;;;17.95;3.25;;;28.60;80.00;;;;;;5034422;28;20033;-76
2022/10/27 06:36:55;;;;;;;26.95;4.20;;;29.60;79.80;;;;;;5034052;28;20108;-72
2022/10/27 06:39:21;;;;;;;25.40;3.47;;;30.30;78.50;;;;;;5034039;28;20021;-73
2022/10/27 06:41:47;;;;;;;;;;;30.00;78.10;;;;;;5017088;28;20038;-71
2022/10/27 06:44:13;;;;;;;22.48;3.00;;;29.60;78.10;;;;;;5029544;28;19905;-72
2022/10/27 06:46:40;;;;;;;14.40;2.85;;;30.00;78.10;;;;;;5014315;28;20030;-72
2022/10/27 06:49:06;;;;;;;22.48;3.47;;;30.80;79.50;;;;;;4996356;28;20180;-72
2022/10/27 06:51:32;;;;;;;;;;;31.90;79.60;;;;;;5014512;28;20535;-73
2022/10/27 06:53:58;;;;;;;20.63;3.25;;;32.90;80.20;;;;;;5014289;28;19935;-74
2022/10/27 06:56:24;;;;;;;;;;;33.60;75.60;;;;;;5028821;28;20026;-73
2022/10/27 06:58:50;;;;;;;19.90;3.55;;;34.30;74.40;;;;;;5034296;28;19950;-70
2022/10/27 07:01:16;;;;;;;21.92;3.72;;;34.90;74.20;;;;;;5024529;28;20045;-70
2022/10/27 07:03:42;;;;;;;20.92;3.55;;;35.40;76.20;;;;;;4993597;28;20040;-71
2022/10/27 07:06:08;;;;;;;21.52;3.95;;;35.80;78.90;;;;;;5013832;28;20086;-71
2022/10/27 07:08:34;;;;;;;27.33;5.00;;;36.10;77.40;;;;;;5013610;28;20390;-69
2022/10/27 07:11:00;;;;;;;26.13;4.28;;;36.00;73.80;;;;;;5013709;28;20465;-69
2022/10/27 07:13:27;;;;;;;18.42;3.97;;;36.50;73.90;;;;;;5014003;28;20378;-70
2022/10/27 07:15:53;;;;;;;22.67;3.65;;;36.80;74.70;;;;;;5013740;28;20030;-70
2022/10/27 07:18:19;;;;;;;22.50;3.90;;;36.50;74.50;;;;;;5014235;28;20113;-70
2022/10/27 07:20:48;;;;;;;30.65;4.05;;;36.40;74.10;;;;;;5014221;28;20057;-70
2022/10/27 07:23:15;;;;;;;32.90;4.72;;;36.50;77.20;;;;;;5013697;28;20025;-70
2022/10/27 07:25:41;;;;;;;33.65;4.50;;;36.20;77.70;;;;;;5013795;28;20022;-70
2022/10/27 07:28:08;;;;;;;25.42;4.45;;;35.70;78.90;;;;;;5013741;28;20114;-71
2022/10/27 07:30:39;;;;;;;22.67;3.83;;;35.10;80.00;;;;;;5013688;28;20108;-71
2022/10/27 07:33:05;;;;;;;29.63;5.63;;;34.40;81.00;;;;;;5013916;28;20525;-70
2022/10/27 07:35:32;;;;;;;27.85;4.50;;;33.70;82.60;;;;;;5013319;28;20088;-71
2022/10/27 07:37:58;;;;;;;25.83;5.18;;;33.10;84.30;;;;;;4996126;28;20092;-70
2022/10/27 07:40:24;;;;;;;;;;;32.70;84.50;;;;;;5014160;28;20025;-70
2022/10/27 07:42:55;;;;;;;19.63;4.60;;;32.30;84.90;;;;;;5000771;28;19909;-70
2022/10/27 07:45:24;;;;;;;24.60;4.53;;;32.00;85.00;;;;;;5013462;28;20453;-70
2022/10/27 07:47:55;;;;;;;29.67;5.10;;;31.60;84.40;;;;;;5013070;28;20026;-71
2022/10/27 07:50:24;;;;;;;20.40;4.50;;;31.30;84.70;;;;;;5012652;28;20041;-69
2022/10/27 07:52:52;;;;;;;19.65;5.50;;;30.70;85.90;;;;;;5011813;28;20103;-70
2022/10/27 07:55:20;;;;;;;21.63;5.97;;;30.40;86.80;;;;;;5011915;28;20037;-69
2022/10/27 07:57:46;;;;;;;28.35;5.97;;;30.00;87.20;;;;;;5012342;28;20470;-71
2022/10/27 08:00:15;;;;;;;37.25;5.32;;;30.20;87.90;;;;;;5011971;28;20030;-70
2022/10/27 08:02:42;;;;;;;27.00;5.88;;;30.20;87.30;;;;;;5012043;28;20112;-69
2022/10/27 08:05:09;;;;;;;27.13;5.38;;;30.20;88.10;;;;;;5012124;28;20140;-69
2022/10/27 08:07:35;;;;;;;24.40;4.68;;;30.00;89.10;;;;;;4994319;28;20034;-71
2022/10/27 08:10:02;;;;;;;23.95;5.55;;;29.90;88.80;;;;;;5012092;28;20478;-71
2022/10/27 08:12:30;;;;;;;24.08;4.60;;;29.90;89.40;;;;;;5012325;28;20097;-69
2022/10/27 08:14:56;;;;;;;19.27;4.05;;;29.90;88.00;;;;;;5012388;28;20348;-69
2022/10/27 08:17:28;;;;;;;34.83;5.63;;;29.90;88.20;;;;;;5011951;28;20449;-71
2022/10/27 08:19:54;;;;;;;24.30;4.18;;;29.80;90.00;;;;;;5013439;28;20050;-71
2022/10/27 08:22:21;;;;;;;27.25;5.60;;;29.60;87.80;;;;;;5012325;28;20026;-71
2022/10/27 08:24:48;;;;;;;23.35;5.65;;;29.80;88.20;;;;;;5011258;28;20034;-69
2022/10/27 08:27:15;;;;;;;19.98;4.97;;;30.00;88.40;;;;;;5012919;28;20423;-70
2022/10/27 08:29:42;;;;;;;24.83;5.63;;;29.70;89.20;;;;;;5012006;28;20446;-71
2022/10/27 08:32:14;;;;;;;18.58;4.75;;;29.60;89.50;;;;;;5012050;28;20029;-65
2022/10/27 08:34:41;;;;;;;21.40;4.93;;;29.70;89.70;;;;;;5011749;28;20030;-71
2022/10/27 08:37:08;;;;;;;25.65;4.88;;;29.80;90.10;;;;;;5012164;28;20413;-71
2022/10/27 08:39:34;;;;;;;21.85;5.78;;;29.80;90.30;;;;;;5011666;28;20057;-69
2022/10/27 08:42:17;;;;;;;28.95;5.53;;;29.80;90.10;;;;;;5011441;28;20096;-70
2022/10/27 08:44:52;;;;;;;22.00;5.07;;;29.80;89.80;;;;;;4994601;28;20030;-71
2022/10/27 08:47:25;;;;;;;24.08;4.75;;;29.60;90.70;;;;;;5012017;28;20434;-69
2022/10/27 08:50:01;;;;;;;19.27;5.22;;;29.60;91.10;;;;;;5011315;28;20050;-71
2022/10/27 08:52:30;;;;;;;;;;;29.30;91.00;;;;;;5011023;28;20620;-70
2022/10/27 08:55:14;;;;;;;25.45;5.90;;;29.10;91.80;;;;;;5011302;28;20005;-70
2022/10/27 08:57:53;;;;;;;21.88;5.40;;;29.10;92.10;;;;;;5007480;28;20064;-69
2022/10/27 09:00:19;;;;;;;29.00;5.53;;;29.10;92.30;;;;;;5000308;28;20200;-69
2022/10/27 09:03:00;;;;;;;22.27;4.60;;;29.20;92.70;;;;;;5007497;28;20539;-69
2022/10/27 09:05:51;;;;;;;24.58;5.43;;;29.20;92.70;;;;;;4993476;28;20039;-70
2022/10/27 09:08:39;;;;;;;32.53;5.30;;;29.20;92.90;;;;;;5005923;28;20498;-71
2022/10/27 09:11:48;;;;;;;17.15;4.43;;;29.30;92.60;;;;;;5011182;28;20060;-68
2022/10/27 09:14:25;;;;;;;20.30;4.78;;;29.20;93.00;;;;;;5010834;28;20050;-70
2022/10/27 09:17:00;;;;;;;20.88;4.60;;;29.30;92.80;;;;;;5010330;28;20068;-70
2022/10/27 09:19:34;;;;;;;24.15;5.65;;;29.40;92.70;;;;;;5010477;28;20379;-68
2022/10/27 09:22:05;;;;;;;19.67;3.90;;;29.30;92.90;;;;;;5010525;28;20037;-68
2022/10/27 09:24:36;;;;;;;25.80;4.65;;;29.30;92.50;;;;;;4998504;28;20030;-69
2022/10/27 09:27:04;;;;;;;27.50;5.43;;;28.90;92.50;;;;;;4991256;28;20548;-70
2022/10/27 09:29:35;;;;;;;19.05;4.80;;;28.90;92.60;;;;;;4994654;28;20041;-70
2022/10/27 09:32:28;;;;;;;22.60;6.28;;;29.00;92.70;;;;;;4994579;28;20022;-70
2022/10/27 09:35:09;;;;;;;23.65;6.47;;;29.00;92.20;;;;;;4995039;28;20112;-69
2022/10/27 09:37:41;;;;;;;25.75;6.88;;;29.10;92.30;;;;;;4977138;28;20038;-69
2022/10/27 09:40:12;;;;;;;20.23;6.18;;;29.00;91.60;;;;;;4994678;28;20128;-70
2022/10/27 09:42:44;;;;;;;21.55;6.45;;;29.00;92.00;;;;;;4976971;28;20023;-70
2022/10/27 09:45:20;;;;;;;24.25;5.57;;;29.00;91.60;;;;;;4995153;28;20037;-70
2022/10/27 09:47:51;;;;;;;22.00;7.47;;;29.10;91.90;;;;;;4993889;28;20038;-72
2022/10/27 09:50:35;;;;;;;27.92;6.72;;;29.20;91.60;;;;;;4995046;28;20030;-70
2022/10/27 09:53:03;;;;;;;28.20;6.97;;;29.20;91.60;;;;;;4993914;28;20386;-70
2022/10/27 09:55:56;;;;;;;20.65;6.15;;;29.10;91.90;;;;;;4994783;28;20257;-71
2022/10/27 09:58:22;;;;;;;27.00;4.95;;;29.30;91.80;;;;;;4991620;28;20035;-70
2022/10/27 10:01:00;;;;;;;19.45;5.38;;;29.50;91.30;;;;;;4994366;28;20109;-69
2022/10/27 10:03:26;;;;;;;20.92;5.35;;;29.60;91.40;;;;;;4994480;28;20446;-70
2022/10/27 10:06:00;;;;;;;20.00;5.65;;;29.70;91.00;;;;;;4994914;28;20045;-69
2022/10/27 10:08:32;;;;;;;21.83;5.00;;;29.80;91.00;;;;;;4994245;28;20030;-71
2022/10/27 10:11:00;;;;;;;18.65;4.93;;;29.90;90.70;;;;;;4994035;28;20038;-70
2022/10/27 10:13:29;;;;;;;25.30;5.55;;;29.90;90.80;;;;;;4994125;28;20045;-72
2022/10/27 10:16:15;;;;;;;17.92;5.05;;;29.90;90.60;;;;;;4994171;28;20105;-70
2022/10/27 10:19:05;;;;;;;26.80;4.70;;;29.90;90.10;;;;;;4992102;28;20094;-69
2022/10/27 10:21:47;;;;;;;19.42;4.00;;;29.90;90.10;;;;;;4991556;28;20050;-69
2022/10/27 10:24:32;;;;;;;27.95;4.18;;;29.90;90.00;;;;;;5000494;28;20022;-70
2022/10/27 10:27:01;;;;;;;22.50;4.47;;;29.70;89.80;;;;;;5012622;28;20029;-70
2022/10/27 10:29:27;;;;;;;18.55;4.80;;;29.60;90.20;;;;;;5012709;28;20134;-69
2022/10/27 10:32:16;;;;;;;27.73;4.43;;;29.80;90.60;;;;;;5012798;28;20026;-72
2022/10/27 10:34:43;;;;;;;21.25;3.70;;;29.80;89.80;;;;;;5013039;28;20076;-77
2022/10/27 10:37:30;;;;;;;18.80;4.22;;;29.70;90.30;;;;;;5012933;28;20026;-75
2022/10/27 10:40:15;;;;;;;21.05;4.22;;;29.90;90.30;;;;;;5006115;28;20030;-69
2022/10/27 10:42:46;;;;;;;21.77;3.85;;;30.10;90.40;;;;;;4995526;28;20030;-71
2022/10/27 10:45:26;;;;;;;17.80;4.15;;;30.20;90.40;;;;;;4995452;28;20434;-74
2022/10/27 10:48:00;;;;;;;33.47;4.95;;;30.40;90.60;;;;;;5013390;28;20080;-75
2022/10/27 10:50:27;;;;;;;21.73;3.97;;;30.30;90.50;;;;;;5003527;28;20035;-72
2022/10/27 10:52:57;;;;;;;17.60;4.28;;;30.30;90.80;;;;;;4993041;28;20054;-73
2022/10/27 10:55:33;;;;;;;16.67;3.97;;;30.30;90.90;;;;;;4993694;28;20029;-72
2022/10/27 10:58:00;;;;;;;17.40;3.97;;;30.50;90.80;;;;;;4993595;28;20094;-74
2022/10/27 11:00:28;;;;;;;19.27;3.72;;;30.60;90.80;;;;;;4993789;28;20046;-73
2022/10/27 11:03:24;;;;;;;22.45;4.55;;;30.60;90.40;;;;;;4993065;28;20030;-72
2022/10/27 11:05:57;;;;;;;18.60;3.90;;;30.50;90.30;;;;;;4993556;28;20022;-72
2022/10/27 11:08:32;;;;;;;25.77;4.18;;;30.40;89.10;;;;;;4993344;28;20069;-72
2022/10/27 11:10:59;;;;;;;15.80;3.60;;;30.60;88.60;;;;;;4993643;28;20062;-69
2022/10/27 11:13:51;;;;;;;18.92;4.15;;;30.40;87.50;;;;;;4993143;28;20049;-73
2022/10/27 11:16:18;;;;;;;17.40;3.83;;;30.60;87.30;;;;;;4992497;28;20026;-73
2022/10/27 11:19:05;;;;;;;17.48;3.78;;;30.70;86.70;;;;;;4993735;28;20387;-74
2022/10/27 11:21:53;;;;;;;19.58;3.38;;;30.70;85.70;;;;;;4993768;28;20459;-73
2022/10/27 11:24:42;;;;;;;20.67;4.18;;;30.20;85.60;;;;;;4993576;28;20030;-72
2022/10/27 11:27:23;;;;;;;25.70;4.30;;;30.20;85.80;;;;;;4993305;28;20035;-73
2022/10/27 11:30:02;;;;;;;17.33;2.97;;;30.20;86.00;;;;;;4993989;28;20116;-72
2022/10/27 11:32:39;;;;;;;15.98;3.20;;;30.30;84.60;;;;;;4993717;28;20454;-74
2022/10/27 11:35:27;;;;;;;22.92;3.45;;;30.40;84.20;;;;;;4993445;28;20034;-73
2022/10/27 11:38:28;;;;;;;24.55;3.80;;;30.00;83.30;;;;;;4993139;28;20034;-71
2022/10/27 11:41:14;;;;;;;16.92;3.15;;;30.10;84.20;;;;;;4990537;28;20038;-73
2022/10/27 11:43:43;;;;;;;;;;;30.20;84.30;;;;;;4993833;28;20073;-73
2022/10/27 11:46:31;;;;;;;22.35;3.53;;;30.20;83.60;;;;;;4993007;28;19960;-73
2022/10/27 11:49:26;;;;;;;18.45;3.55;;;30.30;83.00;;;;;;4993132;28;20084;-73
2022/10/27 11:52:14;;;;;;;22.98;3.38;;;30.30;82.80;;;;;;4915483;29;20491;-74
2022/10/27 11:54:41;;;;;;;30.52;4.40;;;30.40;83.50;;;;;;4932960;29;20035;-73
2022/10/27 11:57:16;;;;;;;19.48;3.63;;;30.40;82.10;;;;;;4932734;29;20079;-73
2022/10/27 12:00:09;;;;;;;12.80;3.00;;;30.20;83.10;;;;;;4916640;29;20063;-72
2022/10/27 12:03:02;;;;;;;15.68;3.72;;;30.10;83.30;;;;;;4931914;29;20084;-72
2022/10/27 12:06:11;;;;;;;20.90;3.80;;;30.10;85.40;;;;;;4932316;29;20130;-70
2022/10/27 12:09:06;;;;;;;24.33;3.72;;;29.80;85.20;;;;;;4932375;29;20051;-73
2022/10/27 12:12:02;;;;;;;18.85;4.45;;;30.00;87.10;;;;;;4932942;29;20110;-73
2022/10/27 12:14:56;;;;;;;20.42;3.90;;;29.90;87.50;;;;;;4932856;29;20059;-73
2022/10/27 12:17:40;;;;;;;23.97;3.80;;;29.90;87.20;;;;;;4882895;29;20040;-72
2022/10/27 12:20:11;;;;;;;19.45;3.47;;;30.00;87.90;;;;;;4933857;29;20482;-74
2022/10/27 12:23:24;;;;;;;12.43;3.00;;;29.90;87.90;;;;;;4934161;29;20035;-73
2022/10/27 12:26:10;;;;;;;17.90;3.58;;;29.70;89.00;;;;;;4877165;29;20040;-72
2022/10/27 12:28:37;;;;;;;22.52;3.15;;;29.70;88.90;;;;;;4900406;29;20052;-72
2022/10/27 12:31:12;;;;;;;23.67;3.60;;;29.70;88.10;;;;;;4914604;29;20048;-72
2022/10/27 12:33:48;;;;;;;19.75;3.70;;;29.80;87.80;;;;;;4914648;29;20036;-72
2022/10/27 12:36:32;;;;;;;;;;;29.70;87.70;;;;;;4915375;29;20028;-72
2022/10/27 12:39:32;;;;;;;13.82;3.50;;;29.50;88.00;;;;;;4914414;29;19979;-72
2022/10/27 12:42:26;;;;;;;26.92;3.60;;;29.50;87.80;;;;;;4914529;29;20029;-73
2022/10/27 12:45:39;;;;;;;16.60;3.33;;;29.30;87.30;;;;;;4914986;29;20037;-75
2022/10/27 12:48:28;;;;;;;21.00;3.03;;;29.30;87.50;;;;;;4914224;29;20028;-74
2022/10/27 12:51:08;;;;;;;21.98;3.55;;;29.20;88.00;;;;;;4913576;29;20036;-73
2022/10/27 12:54:16;;;;;;;21.33;3.33;;;29.30;89.30;;;;;;4914239;29;20040;-73
2022/10/27 12:57:09;;;;;;;22.13;3.83;;;29.40;90.20;;;;;;4955149;28;20053;-74
2022/10/27 12:59:54;;;;;;;22.15;3.00;;;29.40;90.00;;;;;;4993079;28;20351;-73
2022/10/27 13:02:26;;;;;;;22.90;3.33;;;29.60;90.00;;;;;;4993427;28;20031;-72
2022/10/27 13:05:30;;;;;;;19.02;3.55;;;29.60;91.00;;;;;;4996955;28;20023;-71
2022/10/27 13:08:13;;;;;;;17.33;3.22;;;29.50;91.10;;;;;;4937171;29;20036;-72